Time;durP1;ratioP1;P1;durP2;ratioP2;P2;SDS_P1;SDS_P2;PMS_P1;PMS_P2;Temp;Humidity;BMP_temperature;BMP_pressure;BME280_temperature;BME280_humidity;BME280_pressure;Samples;Min_cycle;Max_cycle;Signal;HPM_P1;HPM_P2
2023/03/25 00:00:21;;;;;;;1.87;0.70;;;10.20;99.90;;;;;;5089599;28;20469;-68
2023/03/25 00:02:49;;;;;;;10.53;0.77;;;10.20;99.90;;;;;;5087847;28;20515;-68
2023/03/25 00:05:17;;;;;;;2.47;0.80;;;10.20;99.90;;;;;;5088320;28;20875;-68
2023/03/25 00:07:43;;;;;;;2.10;0.70;;;10.20;99.90;;;;;;5089113;28;20420;-69
2023/03/25 00:10:10;;;;;;;4.97;1.20;;;10.30;99.90;;;;;;5088802;28;20473;-68
2023/03/25 00:12:37;;;;;;;5.37;1.00;;;10.30;99.90;;;;;;5088938;28;20420;-68
2023/03/25 00:15:03;;;;;;;8.43;0.90;;;10.30;99.90;;;;;;5088889;28;20417;-67
2023/03/25 00:17:29;;;;;;;4.13;1.40;;;10.30;99.90;;;;;;5088464;28;20455;-67
2023/03/25 00:19:55;;;;;;;2.80;0.70;;;10.10;99.90;;;;;;5088471;28;20424;-68
2023/03/25 00:22:21;;;;;;;5.03;0.60;;;9.90;99.90;;;;;;5088569;28;20921;-68
2023/03/25 00:24:47;;;;;;;2.30;0.80;;;9.80;99.90;;;;;;5087117;28;20846;-69
2023/03/25 00:27:16;;;;;;;2.07;0.83;;;9.50;99.90;;;;;;5088740;28;20438;-69
2023/03/25 00:29:42;;;;;;;1.00;0.60;;;9.40;99.90;;;;;;5088413;28;20430;-68
2023/03/25 00:32:09;;;;;;;1.37;0.63;;;9.20;99.90;;;;;;5088475;28;20423;-68
2023/03/25 00:34:40;;;;;;;0.90;0.60;;;9.20;99.90;;;;;;5088417;28;20428;-68
2023/03/25 00:37:09;;;;;;;1.40;0.73;;;9.00;99.90;;;;;;5088327;28;20474;-68
2023/03/25 00:39:36;;;;;;;2.30;0.60;;;9.10;99.90;;;;;;5088466;28;20441;-68
2023/03/25 00:42:02;;;;;;;4.23;0.77;;;9.00;99.90;;;;;;5088207;28;20958;-68
2023/03/25 00:44:29;;;;;;;1.97;0.47;;;9.00;99.90;;;;;;5086786;28;20537;-68
2023/03/25 00:46:54;;;;;;;1.30;0.53;;;9.00;99.90;;;;;;5088238;28;20413;-67
2023/03/25 00:49:23;;;;;;;1.90;0.70;;;8.90;99.90;;;;;;5089071;28;20416;-67
2023/03/25 00:51:50;;;;;;;0.87;0.60;;;8.80;99.90;;;;;;5087305;28;20295;-67
2023/03/25 00:54:17;;;;;;;1.13;0.70;;;8.80;99.90;;;;;;5088865;28;20408;-68
2023/03/25 00:56:42;;;;;;;1.33;0.60;;;8.80;99.90;;;;;;5088841;28;20400;-67
2023/03/25 00:59:09;;;;;;;2.53;0.70;;;8.70;99.90;;;;;;5088666;28;20437;-68
2023/03/25 01:01:38;;;;;;;1.30;0.63;;;8.70;99.90;;;;;;5089903;28;20427;-68
2023/03/25 01:04:11;;;;;;;1.40;0.57;;;8.70;99.90;;;;;;5090630;28;20418;-68
2023/03/25 01:06:44;;;;;;;2.20;0.60;;;8.70;99.90;;;;;;5091742;28;20405;-68
2023/03/25 01:09:13;;;;;;;1.30;0.67;;;8.60;99.90;;;;;;5091865;28;20419;-68
2023/03/25 01:11:40;;;;;;;5.43;0.83;;;8.60;99.90;;;;;;5091706;28;20525;-68
2023/03/25 01:14:11;;;;;;;1.67;0.77;;;8.60;99.90;;;;;;5091599;28;20412;-69
2023/03/25 01:16:37;;;;;;;8.50;0.50;;;8.40;99.90;;;;;;5090187;28;20423;-68
2023/03/25 01:19:03;;;;;;;2.97;0.67;;;8.40;99.90;;;;;;5091524;28;20788;-68
2023/03/25 01:21:29;;;;;;;1.87;0.60;;;8.40;99.90;;;;;;5091388;28;20446;-68
2023/03/25 01:23:54;;;;;;;3.33;0.77;;;8.30;99.90;;;;;;5091347;28;20189;-68
2023/03/25 01:26:20;;;;;;;2.03;0.57;;;8.30;99.90;;;;;;5091511;28;20991;-68
2023/03/25 01:28:46;;;;;;;1.50;0.70;;;8.40;99.90;;;;;;5091514;28;20180;-68
2023/03/25 01:31:13;;;;;;;1.83;0.80;;;8.40;99.90;;;;;;5089887;28;20238;-68
2023/03/25 01:33:39;;;;;;;2.47;0.90;;;8.40;99.90;;;;;;5091231;28;20182;-68
2023/03/25 01:36:08;;;;;;;4.00;0.70;;;8.40;99.90;;;;;;5091068;28;20431;-68
2023/03/25 01:38:38;;;;;;;4.37;0.83;;;8.40;99.90;;;;;;5090866;28;20444;-68
2023/03/25 01:41:05;;;;;;;1.43;0.60;;;8.40;99.90;;;;;;5089866;28;20444;-68
2023/03/25 01:43:32;;;;;;;6.03;0.70;;;8.40;99.90;;;;;;5091130;28;20443;-68
2023/03/25 01:45:57;;;;;;;3.83;0.87;;;8.40;99.90;;;;;;5090954;28;20416;-68
2023/03/25 01:48:31;;;;;;;3.20;0.60;;;8.40;99.90;;;;;;5090910;28;20923;-68
2023/03/25 01:51:07;;;;;;;3.37;0.60;;;8.40;99.90;;;;;;5091042;28;20222;-68
2023/03/25 01:53:33;;;;;;;3.33;0.70;;;8.40;99.90;;;;;;5089551;28;20425;-68
2023/03/25 01:56:01;;;;;;;1.30;0.60;;;8.40;99.90;;;;;;5089277;28;20429;-69
2023/03/25 01:58:28;;;;;;;3.60;0.83;;;8.40;99.90;;;;;;5090749;28;20452;-69
2023/03/25 02:00:54;;;;;;;1.67;0.50;;;8.40;99.90;;;;;;5090580;28;20451;-70
2023/03/25 02:03:22;;;;;;;1.63;0.60;;;8.50;99.90;;;;;;5089264;28;20425;-69
2023/03/25 02:06:10;;;;;;;2.67;0.60;;;8.40;99.90;;;;;;5090592;28;20413;-68
2023/03/25 02:08:40;;;;;;;1.70;0.63;;;8.50;99.90;;;;;;5090599;28;20945;-68
2023/03/25 02:11:07;;;;;;;2.20;0.60;;;8.50;99.90;;;;;;5088725;28;21024;-67
2023/03/25 02:13:35;;;;;;;2.40;0.60;;;8.40;99.90;;;;;;5090094;28;20478;-68
2023/03/25 02:16:24;;;;;;;4.00;0.50;;;8.40;99.90;;;;;;5090493;28;20419;-69
2023/03/25 02:18:52;;;;;;;1.90;0.67;;;8.30;99.90;;;;;;5090478;28;20429;-68
2023/03/25 02:22:03;;;;;;;1.77;0.57;;;8.30;99.90;;;;;;5090509;28;20474;-69
2023/03/25 02:24:52;;;;;;;2.20;0.70;;;8.30;99.90;;;;;;5090284;28;20420;-69
2023/03/25 02:27:59;;;;;;;2.13;0.50;;;8.30;99.90;;;;;;5090202;28;21029;-68
2023/03/25 02:30:33;;;;;;;1.93;0.50;;;8.30;99.90;;;;;;5024051;28;20793;-69
2023/03/25 02:32:59;;;;;;;1.37;0.50;;;8.30;99.90;;;;;;5090196;28;20416;-69
2023/03/25 02:35:59;;;;;;;3.60;0.70;;;8.30;99.90;;;;;;5089995;28;20417;-68
2023/03/25 02:38:24;;;;;;;6.83;0.77;;;8.30;99.90;;;;;;5088444;28;20202;-68
2023/03/25 02:41:05;;;;;;;1.47;0.47;;;8.20;99.90;;;;;;5089814;28;20788;-69
2023/03/25 02:43:34;;;;;;;0.80;0.50;;;8.20;99.90;;;;;;5089933;28;20184;-69
2023/03/25 02:46:06;;;;;;;1.40;0.60;;;8.30;99.90;;;;;;5089746;28;20448;-68
2023/03/25 02:48:38;;;;;;;0.80;0.50;;;8.30;99.90;;;;;;5089549;28;20487;-69
2023/03/25 02:51:11;;;;;;;3.80;0.60;;;8.20;99.90;;;;;;5089376;28;20465;-68
2023/03/25 02:53:39;;;;;;;1.87;0.70;;;8.20;99.90;;;;;;5089791;28;20558;-69
2023/03/25 02:56:09;;;;;;;2.07;0.50;;;8.20;99.90;;;;;;5089589;28;20478;-69
2023/03/25 02:58:37;;;;;;;3.03;0.60;;;8.20;99.90;;;;;;5089342;28;20944;-69
2023/03/25 03:01:02;;;;;;;8.50;0.73;;;8.20;99.90;;;;;;5089442;28;20526;-69
2023/03/25 03:03:28;;;;;;;3.97;0.97;;;8.10;99.90;;;;;;5089524;28;20421;-69
2023/03/25 03:06:00;;;;;;;2.60;1.23;;;8.10;99.90;;;;;;5089420;28;20179;-69
2023/03/25 03:08:40;;;;;;;3.27;0.60;;;8.00;99.90;;;;;;5089298;28;20244;-69
2023/03/25 03:11:30;;;;;;;4.47;0.70;;;7.80;99.90;;;;;;5089189;28;20474;-69
2023/03/25 03:14:10;;;;;;;3.17;0.50;;;7.50;99.90;;;;;;5087766;28;20417;-69
2023/03/25 03:16:42;;;;;;;1.30;0.50;;;7.40;99.90;;;;;;5089202;28;20405;-69
2023/03/25 03:19:22;;;;;;;5.40;0.70;;;7.20;99.90;;;;;;5089077;28;20412;-69
2023/03/25 03:22:02;;;;;;;0.70;0.50;;;7.10;99.90;;;;;;5089488;28;20938;-69
2023/03/25 03:24:39;;;;;;;1.00;0.40;;;7.00;99.90;;;;;;5087148;28;20409;-69
2023/03/25 03:27:24;;;;;;;1.77;0.50;;;7.00;99.90;;;;;;5089314;28;20481;-69
2023/03/25 03:30:03;;;;;;;1.00;0.40;;;7.00;99.90;;;;;;5088902;28;20419;-69
2023/03/25 03:32:38;;;;;;;2.50;1.03;;;7.00;99.90;;;;;;5089197;28;20439;-69
2023/03/25 03:35:10;;;;;;;0.70;0.40;;;7.00;99.90;;;;;;5089119;28;20507;-69
2023/03/25 03:37:42;;;;;;;1.77;0.50;;;6.90;99.90;;;;;;5088844;28;20490;-69
2023/03/25 03:40:17;;;;;;;2.73;0.50;;;7.00;99.90;;;;;;5088899;28;20954;-69
2023/03/25 03:42:49;;;;;;;1.00;0.50;;;6.90;99.90;;;;;;5088896;28;20400;-69
2023/03/25 03:45:31;;;;;;;0.90;0.47;;;6.80;99.90;;;;;;5089023;28;20413;-69
2023/03/25 03:48:01;;;;;;;3.50;0.77;;;6.80;99.90;;;;;;5088783;28;20419;-69
2023/03/25 03:50:31;;;;;;;2.20;0.50;;;6.90;99.90;;;;;;5087070;28;20475;-69
2023/03/25 03:53:13;;;;;;;1.77;0.60;;;6.90;99.90;;;;;;5088758;28;20413;-70
2023/03/25 03:55:50;;;;;;;1.77;0.50;;;6.90;99.90;;;;;;5087563;28;20417;-69
2023/03/25 03:58:30;;;;;;;1.03;0.40;;;7.00;99.90;;;;;;5087362;28;20412;-69
2023/03/25 04:01:08;;;;;;;2.20;0.47;;;7.00;99.90;;;;;;5088659;28;20439;-70
2023/03/25 04:03:42;;;;;;;1.37;0.60;;;7.00;99.90;;;;;;5088709;28;20413;-69
2023/03/25 04:06:29;;;;;;;2.20;0.60;;;7.00;99.90;;;;;;5088694;28;20444;-69
2023/03/25 04:09:45;;;;;;;1.23;0.50;;;7.10;99.90;;;;;;5088776;28;21138;-69
2023/03/25 04:12:19;;;;;;;4.50;1.47;;;7.10;99.90;;;;;;5053909;28;20429;-70
2023/03/25 04:14:45;;;;;;;1.00;0.57;;;7.20;99.90;;;;;;5088729;28;20401;-69
2023/03/25 04:17:11;;;;;;;5.97;0.80;;;7.20;99.90;;;;;;5087183;28;20409;-70
2023/03/25 04:19:37;;;;;;;3.03;0.67;;;7.20;99.90;;;;;;5088781;28;20405;-69
2023/03/25 04:22:04;;;;;;;3.53;0.60;;;7.30;99.90;;;;;;5088730;28;20808;-69
2023/03/25 04:24:30;;;;;;;1.97;1.03;;;7.30;99.90;;;;;;5088520;28;20187;-69
2023/03/25 04:27:03;;;;;;;1.40;0.57;;;7.40;99.90;;;;;;5089485;28;20419;-69
2023/03/25 04:29:30;;;;;;;1.53;0.60;;;7.40;99.90;;;;;;5089076;28;20404;-69
2023/03/25 04:31:56;;;;;;;0.93;0.60;;;7.40;99.90;;;;;;5090682;28;20468;-69
2023/03/25 04:34:22;;;;;;;2.40;0.67;;;7.40;99.90;;;;;;5090272;28;20420;-69
2023/03/25 04:36:49;;;;;;;5.67;0.73;;;7.40;99.90;;;;;;5092807;28;20446;-69
2023/03/25 04:39:16;;;;;;;5.30;0.70;;;7.40;99.90;;;;;;5094237;28;20178;-69
2023/03/25 04:41:42;;;;;;;2.60;0.70;;;7.40;99.90;;;;;;5093110;28;20435;-68
2023/03/25 04:44:09;;;;;;;0.87;0.47;;;7.50;99.90;;;;;;5091050;28;20779;-68
2023/03/25 04:46:36;;;;;;;2.40;0.90;;;7.50;99.90;;;;;;5092508;28;20452;-68
2023/03/25 04:49:05;;;;;;;4.77;1.10;;;7.50;99.90;;;;;;5092278;28;20501;-68
2023/03/25 04:51:31;;;;;;;2.70;0.70;;;7.40;99.90;;;;;;5091915;28;20516;-68
2023/03/25 04:53:57;;;;;;;5.13;0.70;;;7.50;99.90;;;;;;5092100;28;20511;-68
2023/03/25 04:56:23;;;;;;;2.13;0.50;;;7.50;99.90;;;;;;5090619;28;20440;-69
2023/03/25 04:58:49;;;;;;;3.03;0.73;;;7.40;99.90;;;;;;5090447;28;20459;-68
2023/03/25 05:01:31;;;;;;;4.07;0.60;;;7.50;99.90;;;;;;5091711;28;20213;-68
2023/03/25 05:04:05;;;;;;;2.03;0.63;;;7.50;99.90;;;;;;5092044;28;20421;-68
2023/03/25 05:06:39;;;;;;;6.33;0.77;;;7.50;99.90;;;;;;5090461;28;20420;-68
2023/03/25 05:09:06;;;;;;;2.77;0.87;;;7.50;99.90;;;;;;5091633;28;20425;-68
2023/03/25 05:11:33;;;;;;;5.73;0.90;;;7.50;99.90;;;;;;5090134;28;20515;-68
2023/03/25 05:13:59;;;;;;;2.60;0.80;;;7.50;99.90;;;;;;5091638;28;20413;-68
2023/03/25 05:16:25;;;;;;;5.70;0.73;;;7.50;99.90;;;;;;5091752;28;20416;-68
2023/03/25 05:18:51;;;;;;;3.70;0.77;;;7.50;99.90;;;;;;5090144;28;20425;-69
2023/03/25 05:21:17;;;;;;;1.97;0.67;;;7.50;99.90;;;;;;5091848;28;20928;-68
2023/03/25 05:23:43;;;;;;;0.80;0.50;;;7.50;99.90;;;;;;5091576;28;20465;-68
2023/03/25 05:26:11;;;;;;;1.70;0.60;;;7.40;99.90;;;;;;5090373;28;20228;-68
2023/03/25 05:28:37;;;;;;;3.63;1.30;;;7.40;99.90;;;;;;5091630;28;20918;-68
2023/03/25 05:31:07;;;;;;;4.27;1.00;;;7.40;99.90;;;;;;5091246;28;20498;-68
2023/03/25 05:33:35;;;;;;;5.90;0.90;;;7.40;99.90;;;;;;5091410;28;20447;-67
2023/03/25 05:36:04;;;;;;;3.47;0.97;;;7.40;99.90;;;;;;5089944;28;20408;-68
2023/03/25 05:38:32;;;;;;;2.07;1.00;;;7.40;99.90;;;;;;5091398;28;20436;-68
2023/03/25 05:40:59;;;;;;;3.87;0.83;;;7.40;99.90;;;;;;5091714;28;20433;-68
2023/03/25 05:43:28;;;;;;;5.47;1.10;;;7.50;99.90;;;;;;5091641;28;20417;-68
2023/03/25 05:45:53;;;;;;;7.50;1.00;;;7.40;99.90;;;;;;5090434;28;20426;-69
2023/03/25 05:48:19;;;;;;;1.60;1.00;;;7.50;99.90;;;;;;5089303;28;20428;-69
2023/03/25 05:50:44;;;;;;;5.27;0.70;;;7.50;99.90;;;;;;5089722;28;20219;-69
2023/03/25 05:53:12;;;;;;;2.30;0.80;;;7.60;99.90;;;;;;5091369;28;20182;-68
2023/03/25 05:55:38;;;;;;;3.43;0.67;;;7.60;99.90;;;;;;5091202;28;20205;-68
2023/03/25 05:58:04;;;;;;;5.00;0.80;;;7.70;99.90;;;;;;5091115;28;20436;-68
2023/03/25 06:00:29;;;;;;;7.70;1.30;;;7.70;99.90;;;;;;5090850;28;20210;-68
2023/03/25 06:02:57;;;;;;;1.97;0.83;;;7.70;99.90;;;;;;5090975;28;20186;-69
2023/03/25 06:05:24;;;;;;;3.73;1.23;;;7.80;99.90;;;;;;5091242;28;20178;-68
2023/03/25 06:07:54;;;;;;;6.30;1.20;;;7.80;99.90;;;;;;5091161;28;20423;-69
2023/03/25 06:10:21;;;;;;;4.50;0.80;;;7.80;99.90;;;;;;5091139;28;21059;-68
2023/03/25 06:12:47;;;;;;;6.17;0.70;;;7.90;99.90;;;;;;5091199;28;20414;-68
2023/03/25 06:15:16;;;;;;;2.00;0.87;;;8.00;99.90;;;;;;5091166;28;20405;-69
2023/03/25 06:17:45;;;;;;;1.70;0.67;;;8.00;99.90;;;;;;5091325;28;20409;-68
2023/03/25 06:20:12;;;;;;;1.90;0.60;;;8.00;99.90;;;;;;5091247;28;20428;-68
2023/03/25 06:22:43;;;;;;;1.83;0.80;;;8.10;99.90;;;;;;5091312;28;20816;-68
2023/03/25 06:25:18;;;;;;;4.40;1.00;;;8.00;99.90;;;;;;5091192;28;20417;-69
2023/03/25 06:27:45;;;;;;;2.60;0.70;;;8.10;99.90;;;;;;5090897;28;20976;-69
2023/03/25 06:30:14;;;;;;;4.63;1.17;;;8.10;99.90;;;;;;5072798;28;20559;-68
2023/03/25 06:32:40;;;;;;;6.20;1.17;;;8.00;99.90;;;;;;5090491;28;20945;-69
2023/03/25 06:35:08;;;;;;;4.17;0.80;;;8.10;99.90;;;;;;5090439;28;20413;-69
2023/03/25 06:37:34;;;;;;;10.47;1.23;;;8.00;99.90;;;;;;5090122;28;20919;-68
2023/03/25 06:40:00;;;;;;;5.00;0.80;;;8.10;99.90;;;;;;5090335;28;20417;-68
2023/03/25 06:42:27;;;;;;;1.90;0.60;;;8.20;99.90;;;;;;5090335;28;20980;-68
2023/03/25 06:44:53;;;;;;;3.67;1.10;;;8.20;99.90;;;;;;5090598;28;20412;-68
2023/03/25 06:47:19;;;;;;;3.30;0.60;;;8.30;99.90;;;;;;5090582;28;20895;-68
2023/03/25 06:49:45;;;;;;;3.63;0.90;;;8.30;99.90;;;;;;5089079;28;20416;-68
2023/03/25 06:52:11;;;;;;;1.67;0.50;;;8.30;99.90;;;;;;5089423;28;20178;-69
2023/03/25 06:54:36;;;;;;;4.00;1.23;;;8.30;99.90;;;;;;5089161;28;20575;-68
2023/03/25 06:57:02;;;;;;;2.60;0.70;;;8.20;99.90;;;;;;5090368;28;20473;-68
2023/03/25 06:59:28;;;;;;;4.07;0.97;;;8.40;99.90;;;;;;5089361;28;20420;-69
2023/03/25 07:01:54;;;;;;;4.07;0.80;;;8.50;99.90;;;;;;5090131;28;20479;-68
2023/03/25 07:04:19;;;;;;;3.27;0.80;;;8.50;99.90;;;;;;5090262;28;20213;-68
2023/03/25 07:06:45;;;;;;;3.93;0.70;;;8.50;99.90;;;;;;5090193;28;20202;-68
2023/03/25 07:09:11;;;;;;;2.53;0.70;;;8.80;99.90;;;;;;5088688;28;20268;-69
2023/03/25 07:11:36;;;;;;;3.43;0.60;;;8.80;99.90;;;;;;5089522;28;20286;-68
2023/03/25 07:14:02;;;;;;;5.93;0.90;;;9.00;99.90;;;;;;5089694;28;20275;-68
2023/03/25 07:16:27;;;;;;;2.20;0.60;;;9.00;99.90;;;;;;5089692;28;20662;-68
2023/03/25 07:18:57;;;;;;;6.00;0.80;;;9.00;99.90;;;;;;5088471;28;20186;-68
2023/03/25 07:21:23;;;;;;;2.03;0.60;;;9.00;99.90;;;;;;5088048;28;20201;-68
2023/03/25 07:23:49;;;;;;;1.67;0.80;;;8.70;99.90;;;;;;5089454;28;20412;-68
2023/03/25 07:26:15;;;;;;;1.80;0.70;;;8.80;99.90;;;;;;5089407;28;20428;-68
2023/03/25 07:28:41;;;;;;;1.77;0.60;;;8.90;99.90;;;;;;5089324;28;20217;-68
2023/03/25 07:31:12;;;;;;;1.47;0.83;;;9.00;99.90;;;;;;5087816;28;20937;-69
2023/03/25 07:33:37;;;;;;;2.80;0.70;;;8.90;99.90;;;;;;5089340;28;20501;-68
2023/03/25 07:36:05;;;;;;;1.73;0.80;;;8.90;99.90;;;;;;5087764;28;20441;-69
2023/03/25 07:38:31;;;;;;;0.83;0.40;;;8.90;99.90;;;;;;5087544;28;20202;-69
2023/03/25 07:40:57;;;;;;;1.40;0.50;;;8.90;99.90;;;;;;5089635;28;20433;-69
2023/03/25 07:43:22;;;;;;;1.00;0.60;;;9.00;99.90;;;;;;5089629;28;20447;-69
2023/03/25 07:45:48;;;;;;;3.03;0.70;;;9.20;99.90;;;;;;5089590;28;20503;-69
2023/03/25 07:48:15;;;;;;;1.27;1.17;;;9.20;99.90;;;;;;5089777;28;20643;-68
2023/03/25 07:50:41;;;;;;;6.50;2.67;;;9.20;99.90;;;;;;5089796;28;20214;-68
2023/03/25 07:53:07;;;;;;;0.70;0.43;;;9.30;99.90;;;;;;5089346;28;20482;-69
2023/03/25 07:55:32;;;;;;;8.63;0.73;;;9.10;99.90;;;;;;5089467;28;20454;-69
2023/03/25 07:58:00;;;;;;;1.10;0.50;;;9.40;99.90;;;;;;5089564;28;20315;-69
2023/03/25 08:00:26;;;;;;;0.80;0.50;;;9.60;99.90;;;;;;5089674;28;20343;-68
2023/03/25 08:02:52;;;;;;;3.13;0.73;;;9.80;99.90;;;;;;5089439;28;20409;-69
2023/03/25 08:05:20;;;;;;;2.00;0.70;;;10.00;99.90;;;;;;5089478;28;20430;-69
2023/03/25 08:07:50;;;;;;;13.53;9.30;;;10.40;99.90;;;;;;5089334;28;20184;-68
2023/03/25 08:10:17;;;;;;;1.60;1.50;;;10.70;99.90;;;;;;5090700;28;20463;-68
2023/03/25 08:12:43;;;;;;;0.80;0.50;;;11.10;99.90;;;;;;5093914;28;20428;-68
2023/03/25 08:15:12;;;;;;;1.40;1.10;;;11.30;99.90;;;;;;5092106;28;20432;-69
2023/03/25 08:17:38;;;;;;;1.30;0.87;;;11.10;99.90;;;;;;5093387;28;20465;-69
2023/03/25 08:20:06;;;;;;;0.93;0.40;;;10.90;99.90;;;;;;5093215;28;20417;-69
2023/03/25 08:22:32;;;;;;;0.70;0.40;;;11.00;99.90;;;;;;5093039;28;20715;-70
2023/03/25 08:24:58;;;;;;;1.97;1.60;;;11.00;99.90;;;;;;5091473;28;20429;-69
2023/03/25 08:27:24;;;;;;;1.73;0.63;;;10.90;99.90;;;;;;5092675;28;20430;-70
2023/03/25 08:29:56;;;;;;;1.00;0.60;;;11.10;99.90;;;;;;5092466;28;20211;-69
2023/03/25 08:32:23;;;;;;;1.43;0.43;;;11.10;99.90;;;;;;5091189;28;20418;-69
2023/03/25 08:34:49;;;;;;;2.10;0.60;;;10.80;99.90;;;;;;5092554;28;20420;-69
2023/03/25 08:37:14;;;;;;;1.33;0.50;;;10.60;99.90;;;;;;5092275;28;20441;-69
2023/03/25 08:39:43;;;;;;;2.30;0.60;;;10.70;99.90;;;;;;5091669;28;20796;-69
2023/03/25 08:42:11;;;;;;;1.93;0.50;;;10.70;99.90;;;;;;5091167;28;20853;-69
2023/03/25 08:44:37;;;;;;;1.33;0.50;;;10.70;99.90;;;;;;5089578;28;20441;-69
2023/03/25 08:47:03;;;;;;;1.13;0.40;;;10.70;99.90;;;;;;5090962;28;20446;-69
2023/03/25 08:49:29;;;;;;;1.57;0.60;;;10.60;99.90;;;;;;5091091;28;20792;-69
2023/03/25 08:51:57;;;;;;;2.50;0.93;;;10.80;99.90;;;;;;5089620;28;20219;-69
2023/03/25 08:54:24;;;;;;;3.57;0.77;;;10.90;99.90;;;;;;5091119;28;20410;-69
2023/03/25 08:56:50;;;;;;;1.33;0.60;;;10.80;99.90;;;;;;5091164;28;20933;-68
2023/03/25 08:59:16;;;;;;;0.97;0.50;;;10.80;99.90;;;;;;5090776;28;20440;-69
2023/03/25 09:01:43;;;;;;;1.63;0.70;;;10.80;99.90;;;;;;5090739;28;20461;-69
2023/03/25 09:04:10;;;;;;;9.87;2.90;;;10.90;99.90;;;;;;5090791;28;20179;-69
2023/03/25 09:06:36;;;;;;;1.17;0.40;;;11.10;99.90;;;;;;5089317;28;20446;-69
2023/03/25 09:09:04;;;;;;;1.40;0.50;;;10.80;99.90;;;;;;5090471;28;20932;-69
2023/03/25 09:11:32;;;;;;;1.87;0.60;;;10.30;99.90;;;;;;5088705;28;20828;-69
2023/03/25 09:14:01;;;;;;;3.40;0.57;;;10.70;99.90;;;;;;5090471;28;20890;-69
2023/03/25 09:16:27;;;;;;;0.90;0.50;;;11.00;99.90;;;;;;5089284;28;20471;-69
2023/03/25 09:18:52;;;;;;;2.03;0.87;;;11.00;99.90;;;;;;5090708;28;20889;-68
2023/03/25 09:21:18;;;;;;;2.13;0.60;;;11.10;99.90;;;;;;5089901;28;20210;-69
2023/03/25 09:23:44;;;;;;;1.10;0.60;;;11.50;99.50;;;;;;5090326;28;20593;-69
2023/03/25 09:26:10;;;;;;;0.80;0.43;;;11.60;97.30;;;;;;5089374;28;20679;-68
2023/03/25 09:28:35;;;;;;;3.40;0.80;;;11.90;99.60;;;;;;5090484;28;20190;-69
2023/03/25 09:31:01;;;;;;;1.70;0.60;;;12.10;96.90;;;;;;5089036;28;20468;-68
2023/03/25 09:33:27;;;;;;;1.30;0.47;;;11.90;96.80;;;;;;5090388;28;20177;-68
2023/03/25 09:35:53;;;;;;;1.43;0.50;;;11.90;96.90;;;;;;5090120;28;20556;-68
2023/03/25 09:38:19;;;;;;;2.93;0.70;;;12.40;97.40;;;;;;5090078;28;20425;-69
2023/03/25 09:40:45;;;;;;;1.60;0.50;;;12.30;95.80;;;;;;5090131;28;20449;-69
2023/03/25 09:43:29;;;;;;;1.70;0.50;;;12.40;97.10;;;;;;5088827;28;20281;-69
2023/03/25 09:45:57;;;;;;;2.30;0.70;;;12.30;96.70;;;;;;5088804;28;20430;-69
2023/03/25 09:48:36;;;;;;;1.20;0.60;;;12.10;97.30;;;;;;5088880;28;20424;-70
2023/03/25 09:51:18;;;;;;;0.90;0.50;;;11.70;99.90;;;;;;5090489;28;20554;-68
2023/03/25 09:53:54;;;;;;;0.80;0.50;;;11.60;99.00;;;;;;5090450;28;20432;-69
2023/03/25 09:56:24;;;;;;;2.23;0.63;;;11.70;99.30;;;;;;5088338;28;20793;-70
2023/03/25 09:58:53;;;;;;;1.67;0.60;;;11.70;99.30;;;;;;5090296;28;20407;-69
2023/03/25 10:01:37;;;;;;;1.20;0.60;;;12.00;98.90;;;;;;5090716;28;21163;-70
2023/03/25 10:04:30;;;;;;;1.10;0.50;;;12.20;97.00;;;;;;5089241;28;20423;-69
2023/03/25 10:07:28;;;;;;;3.10;0.80;;;12.10;97.40;;;;;;5089978;28;20830;-69
2023/03/25 10:10:23;;;;;;;0.70;0.50;;;12.40;97.00;;;;;;5089275;28;20422;-69
2023/03/25 10:13:08;;;;;;;2.40;0.50;;;12.30;97.20;;;;;;5089300;28;20455;-69
2023/03/25 10:15:55;;;;;;;1.43;0.70;;;11.90;96.60;;;;;;5089313;28;20475;-70
2023/03/25 10:18:26;;;;;;;1.43;0.60;;;11.80;96.90;;;;;;5087648;28;20903;-70
2023/03/25 10:20:58;;;;;;;1.10;0.50;;;11.60;98.50;;;;;;5087767;28;20440;-69
2023/03/25 10:23:40;;;;;;;0.70;0.40;;;11.30;99.90;;;;;;5089199;28;20413;-69
2023/03/25 10:26:19;;;;;;;4.93;0.50;;;11.20;99.90;;;;;;5089299;28;20410;-68
2023/03/25 10:29:01;;;;;;;3.63;0.70;;;11.10;99.90;;;;;;5089199;28;20445;-68
2023/03/25 10:31:30;;;;;;;1.37;0.83;;;11.20;99.90;;;;;;5088977;28;20470;-68
2023/03/25 10:34:05;;;;;;;2.03;0.50;;;11.00;99.90;;;;;;5088819;28;20423;-68
2023/03/25 10:36:39;;;;;;;1.43;0.60;;;11.10;99.90;;;;;;5089050;28;20576;-68
2023/03/25 10:39:13;;;;;;;0.90;0.40;;;11.10;99.90;;;;;;5089111;28;20436;-69
2023/03/25 10:41:42;;;;;;;1.47;0.50;;;11.00;99.90;;;;;;5087453;28;21039;-68
2023/03/25 10:44:10;;;;;;;1.97;0.60;;;10.90;99.90;;;;;;5088971;28;20434;-70
2023/03/25 10:46:48;;;;;;;1.50;0.70;;;10.70;99.90;;;;;;5087532;28;20426;-68
2023/03/25 10:49:18;;;;;;;1.10;0.57;;;10.50;99.90;;;;;;5088994;28;20414;-69
2023/03/25 10:51:45;;;;;;;3.00;0.70;;;10.30;99.90;;;;;;5089136;28;20470;-69
2023/03/25 10:54:13;;;;;;;2.33;0.70;;;10.30;99.90;;;;;;5089471;28;20415;-69
2023/03/25 10:56:44;;;;;;;5.20;1.13;;;10.10;99.90;;;;;;5089244;28;20421;-69
2023/03/25 10:59:19;;;;;;;1.13;0.50;;;10.40;99.90;;;;;;5089428;28;20412;-68
2023/03/25 11:01:46;;;;;;;1.47;0.50;;;10.90;99.90;;;;;;5089154;28;20804;-68
2023/03/25 11:04:18;;;;;;;0.73;0.43;;;11.60;99.90;;;;;;5089014;28;20414;-69
2023/03/25 11:06:54;;;;;;;3.30;0.50;;;12.20;99.90;;;;;;5088874;28;20422;-69
2023/03/25 11:09:25;;;;;;;1.53;0.60;;;12.50;99.90;;;;;;5088651;28;20494;-69
2023/03/25 11:11:52;;;;;;;2.60;0.60;;;12.50;99.90;;;;;;5087623;28;20468;-69
2023/03/25 11:14:23;;;;;;;4.20;1.10;;;12.70;99.90;;;;;;5088983;28;20468;-68
2023/03/25 11:17:04;;;;;;;5.80;0.80;;;13.40;99.90;;;;;;5089141;28;20902;-69
2023/03/25 11:19:55;;;;;;;3.57;0.80;;;13.00;99.90;;;;;;5087237;28;20577;-68
2023/03/25 11:22:26;;;;;;;1.37;0.70;;;13.70;99.90;;;;;;5088528;28;20461;-68
2023/03/25 11:25:02;;;;;;;3.20;0.90;;;13.40;99.90;;;;;;5087235;28;20434;-69
2023/03/25 11:27:29;;;;;;;3.13;0.70;;;13.70;99.90;;;;;;5088508;28;20438;-68
2023/03/25 11:30:02;;;;;;;1.43;0.60;;;13.80;99.90;;;;;;5088132;28;20945;-69
2023/03/25 11:32:37;;;;;;;1.87;0.60;;;13.60;99.20;;;;;;5088118;28;20502;-68
2023/03/25 11:35:21;;;;;;;2.90;0.70;;;13.50;98.00;;;;;;5088454;28;20421;-68
2023/03/25 11:37:57;;;;;;;1.40;0.80;;;13.30;95.60;;;;;;5088590;28;20506;-68
2023/03/25 11:40:23;;;;;;;1.30;0.60;;;13.10;96.20;;;;;;5087176;28;20442;-68
2023/03/25 11:42:56;;;;;;;1.53;0.60;;;12.90;96.60;;;;;;5090632;28;20474;-69
2023/03/25 11:45:26;;;;;;;1.43;0.50;;;12.30;99.80;;;;;;5090933;28;20416;-69
2023/03/25 11:47:57;;;;;;;1.70;0.70;;;12.00;99.90;;;;;;5088964;28;20408;-68
2023/03/25 11:50:26;;;;;;;0.73;0.40;;;11.60;99.90;;;;;;5087401;28;20470;-69
2023/03/25 11:53:00;;;;;;;2.23;0.60;;;12.40;99.90;;;;;;5087631;28;20426;-70
2023/03/25 11:55:29;;;;;;;0.90;0.60;;;12.80;99.90;;;;;;5088607;28;20500;-69
2023/03/25 11:57:57;;;;;;;2.50;0.77;;;13.60;99.90;;;;;;5088252;28;20516;-69
2023/03/25 12:00:40;;;;;;;3.47;0.70;;;13.80;97.70;;;;;;5087963;28;20448;-70
2023/03/25 12:03:26;;;;;;;2.93;0.73;;;13.40;92.80;;;;;;5087704;28;20911;-69
2023/03/25 12:06:10;;;;;;;6.63;0.90;;;13.30;95.30;;;;;;5087564;28;20415;-69
2023/03/25 12:08:50;;;;;;;1.20;0.53;;;13.00;94.90;;;;;;5086006;28;20496;-68
2023/03/25 12:11:23;;;;;;;1.67;0.60;;;13.00;94.20;;;;;;5087372;28;20471;-69
2023/03/25 12:13:51;;;;;;;1.83;0.60;;;12.90;95.00;;;;;;5087696;28;20402;-69
2023/03/25 12:16:49;;;;;;;1.23;0.73;;;13.10;94.80;;;;;;5087469;28;20421;-69
2023/03/25 12:19:43;;;;;;;2.23;0.60;;;13.70;93.20;;;;;;5049438;28;20424;-69
2023/03/25 12:22:09;;;;;;;1.13;0.80;;;14.50;92.70;;;;;;5087716;28;20448;-69
2023/03/25 12:24:35;;;;;;;1.40;0.60;;;14.80;90.50;;;;;;5087594;28;20474;-69
2023/03/25 12:27:14;;;;;;;0.87;0.63;;;14.30;84.40;;;;;;5087571;28;20617;-69
2023/03/25 12:29:49;;;;;;;0.97;0.60;;;14.10;85.20;;;;;;5087760;28;20425;-69
2023/03/25 12:32:50;;;;;;;2.00;0.70;;;13.70;90.00;;;;;;5087571;28;20454;-69
2023/03/25 12:35:28;;;;;;;5.37;0.80;;;13.60;88.80;;;;;;5044246;28;20849;-69
2023/03/25 12:38:00;;;;;;;1.03;0.77;;;13.60;90.50;;;;;;5087394;28;20434;-69
2023/03/25 12:40:47;;;;;;;2.10;0.60;;;13.50;89.00;;;;;;5087460;28;20443;-69
2023/03/25 12:43:25;;;;;;;2.70;0.80;;;13.40;90.80;;;;;;5087528;28;20440;-69
2023/03/25 12:46:18;;;;;;;1.83;0.70;;;13.20;90.60;;;;;;5087549;28;20442;-68
2023/03/25 12:48:50;;;;;;;1.73;0.80;;;12.90;91.60;;;;;;5086098;28;20490;-69
2023/03/25 12:51:46;;;;;;;1.47;0.50;;;12.50;92.80;;;;;;5087461;28;20460;-68
2023/03/25 12:54:37;;;;;;;4.50;0.70;;;12.20;92.70;;;;;;5087592;28;20408;-70
2023/03/25 12:57:09;;;;;;;3.80;0.60;;;12.20;94.80;;;;;;5090094;28;20424;-70
2023/03/25 12:59:48;;;;;;;2.17;0.50;;;11.70;94.50;;;;;;5091243;28;20413;-69
2023/03/25 13:02:43;;;;;;;1.43;0.60;;;12.00;97.20;;;;;;5091320;28;21214;-69
2023/03/25 13:05:23;;;;;;;1.43;0.50;;;12.00;98.30;;;;;;5091019;28;20560;-69
2023/03/25 13:07:58;;;;;;;2.83;0.83;;;12.20;95.70;;;;;;5091016;28;20418;-69
2023/03/25 13:10:32;;;;;;;1.43;0.57;;;13.10;98.20;;;;;;5088961;28;20504;-68
2023/03/25 13:13:02;;;;;;;3.80;0.60;;;13.90;94.50;;;;;;5090632;28;20407;-70